CheckWX is a tool to help pilots better visualize weather data.  It is not intended as a substitute for an official pre-flight weather briefing.

17:15:05 UTC

DTNH TAF
Enfidha - Hammamet International Airport
Enfidha, Tunisia
TAF DTNH 181100Z 1812/1912 07013KT CAVOK BECMG 1817/1819 12007KT 9999 FEW030 BECMG 1820/1822 22005KT BECMG 1900/1902 VRB03KT BECMG 1907/1909 08010KT 9999 FEW020

Jun-18@
12:00 UTC

Jun-18 @ 12:00 UTC

Jun-18@
17:00 UTC

Jun-18 @ 17:00 UTC

TAF DTNH 181100Z 1812/1912 07013KT CAVOK

Expired

Wind
  • 070° at 13 KTS
Conditions
No significant weather
Cloud Levels
  • No significant clouds

Jun-18@
17:00 UTC

Jun-18 @ 17:00 UTC

Jun-18@
20:00 UTC

Jun-18 @ 20:00 UTC

BECMG 1817/1819 12007KT 9999 FEW030

Becoming

Becoming Conditions expected by Tue, Jun 18, 2019 @ 19:00 UTC

Wind
  • 120° at 7 KTS
Conditions
No significant weather
Cloud Levels
  • Few at 3,000' AGL

Jun-18@
20:00 UTC

Jun-18 @ 20:00 UTC

Jun-19@
00:00 UTC

Jun-19 @ 00:00 UTC

BECMG 1820/1822 22005KT

Becoming

Becoming Conditions expected by Tue, Jun 18, 2019 @ 22:00 UTC

Wind
  • 220° at 5 KTS
Conditions
No significant weather
Cloud Levels
  • Few at 3,000' AGL

Jun-19@
00:00 UTC

Jun-19 @ 00:00 UTC

Jun-19@
07:00 UTC

Jun-19 @ 07:00 UTC

BECMG 1900/1902 VRB03KT

Becoming

Becoming Conditions expected by Wed, Jun 19, 2019 @ 02:00 UTC

Wind
  • Variable at 3 KTS
Conditions
No significant weather
Cloud Levels
  • Few at 3,000' AGL

Jun-19@
07:00 UTC

Jun-19 @ 07:00 UTC

Jun-19@
12:00 UTC

Jun-19 @ 12:00 UTC

BECMG 1907/1909 08010KT 9999 FEW020

Becoming

Becoming Conditions expected by Wed, Jun 19, 2019 @ 09:00 UTC

Wind
  • 080° at 10 KTS
Conditions
No significant weather
Cloud Levels
  • Few at 2,000' AGL